Terminal Aerodrome Forecast
Issued by NWS

Home | Current Version | Previous Version | Text Only | Print | Product List | Glossary On
Versions: 1 2 3 4 5 6 7 8 9 10 11 12 13 14 15 16 17
990
FTUS43 KSGF 142320
TAFJLN
TAF
KJLN 142320Z 1500/1524 22006KT P6SM SKC
     FM151100 21005KT 5SM BR BKN110
     FM151600 29010KT P6SM SCT090 SCT250
     FM152100 30010G18KT P6SM SKC=

USA.gov is the U.S. government's official web portal to all federal, state and local government web resources and services.